createdAt,value
2023-03-28T12:04:49.690Z,1024.39
2023-03-28T12:05:49.641Z,1024.32
2023-03-28T12:07:01.928Z,1024.29
2023-03-28T12:07:50.554Z,1024.24
2023-03-28T12:08:49.649Z,1024.21
2023-03-28T12:09:49.561Z,1024.20
2023-03-28T12:10:49.532Z,1024.25
2023-03-28T12:11:57.350Z,1024.18
2023-03-28T12:12:49.538Z,1024.22
2023-03-28T12:13:55.475Z,1024.22
2023-03-28T12:14:50.447Z,1024.24
2023-03-28T12:15:49.434Z,1024.22
2023-03-28T12:16:49.506Z,1024.16
2023-03-28T12:17:49.480Z,1024.19
2023-03-28T12:18:49.408Z,1024.18
2023-03-28T12:19:49.357Z,1024.11
2023-03-28T12:20:49.380Z,1024.11
2023-03-28T12:21:49.347Z,1024.11
2023-03-28T12:22:49.391Z,1024.11
2023-03-28T12:23:49.391Z,1024.08
2023-03-28T12:24:49.384Z,1024.05
2023-03-28T12:25:49.298Z,1023.99
2023-03-28T12:26:49.300Z,1023.95
2023-03-28T12:27:49.325Z,1023.97
2023-03-28T12:28:49.264Z,1023.96
2023-03-28T12:29:49.290Z,1023.96
2023-03-28T12:30:49.331Z,1023.88
2023-03-28T12:31:49.226Z,1023.86
2023-03-28T12:32:49.202Z,1023.88
2023-03-28T12:33:49.316Z,1023.81
2023-03-28T12:34:49.195Z,1023.76
2023-03-28T12:35:49.258Z,1023.77
2023-03-28T12:36:49.258Z,1023.69
2023-03-28T12:37:49.131Z,1023.67
2023-03-28T12:38:49.117Z,1023.67
2023-03-28T12:39:49.132Z,1023.63
2023-03-28T12:40:49.060Z,1023.61
2023-03-28T12:41:49.061Z,1023.53
2023-03-28T12:42:49.114Z,1023.55
2023-03-28T12:43:49.112Z,1023.54
2023-03-28T12:44:49.012Z,1023.50
2023-03-28T12:45:49.010Z,1023.54
2023-03-28T12:46:49.009Z,1023.54
2023-03-28T12:47:49.176Z,1023.50
2023-03-28T12:48:49.051Z,1023.58
2023-03-28T12:49:49.050Z,1023.57
2023-03-28T12:50:49.209Z,1023.51
2023-03-28T12:51:49.071Z,1023.47
2023-03-28T12:52:49.156Z,1023.43
2023-03-28T12:53:49.061Z,1023.43
2023-03-28T12:54:49.103Z,1023.43
2023-03-28T12:55:48.945Z,1023.43
2023-03-28T12:56:48.866Z,1023.38
2023-03-28T12:57:48.990Z,1023.42
2023-03-28T12:58:49.042Z,1023.39
2023-03-28T12:59:51.126Z,1023.32
2023-03-28T13:00:48.872Z,1023.30
2023-03-28T13:01:48.817Z,1023.30
2023-03-28T13:02:48.820Z,1023.31
2023-03-28T13:03:48.826Z,1023.26
2023-03-28T13:04:55.475Z,1023.23
2023-03-28T13:05:48.750Z,1023.22
2023-03-28T13:06:49.244Z,1023.22
2023-03-28T13:07:48.974Z,1023.22
2023-03-28T13:08:48.918Z,1023.16
2023-03-28T13:09:48.811Z,1023.21
2023-03-28T13:10:48.682Z,1023.22
2023-03-28T13:11:48.781Z,1023.20
2023-03-28T13:12:49.004Z,1023.19
2023-03-28T13:13:48.657Z,1023.08
2023-03-28T13:14:48.674Z,1023.08
2023-03-28T13:15:48.857Z,1023.08
2023-03-28T13:16:48.704Z,1023.11
2023-03-28T13:17:48.817Z,1023.10
2023-03-28T13:18:48.705Z,1023.09
2023-03-28T13:19:48.722Z,1023.06
2023-03-28T13:20:48.772Z,1023.08
2023-03-28T13:21:49.055Z,1023.06
2023-03-28T13:22:48.602Z,1023.00
2023-03-28T13:23:48.657Z,1022.96
2023-03-28T13:24:48.717Z,1022.88
2023-03-28T13:25:48.581Z,1022.84
2023-03-28T13:26:48.516Z,1022.89
2023-03-28T13:27:48.494Z,1022.87
2023-03-28T13:28:48.535Z,1022.82
2023-03-28T13:29:48.687Z,1022.80
2023-03-28T13:30:48.442Z,1022.80
2023-03-28T13:31:48.494Z,1022.81
2023-03-28T13:32:48.503Z,1022.75
2023-03-28T13:33:49.523Z,1022.73
2023-03-28T13:34:48.394Z,1022.69
2023-03-28T13:35:48.536Z,1022.67
2023-03-28T13:36:48.497Z,1022.62
2023-03-28T13:37:48.360Z,1022.64
2023-03-28T13:38:48.782Z,1022.61
2023-03-28T13:39:48.269Z,1022.67
2023-03-28T13:40:48.656Z,1022.62
2023-03-28T13:41:49.526Z,1022.64
2023-03-28T13:42:48.458Z,1022.67
2023-03-28T13:43:48.860Z,1022.64
2023-03-28T13:44:48.466Z,1022.66
2023-03-28T13:45:48.426Z,1022.65
2023-03-28T13:46:48.511Z,1022.66
2023-03-28T13:47:50.177Z,1022.63
2023-03-28T13:48:49.396Z,1022.64
2023-03-28T13:49:48.134Z,1022.55
2023-03-28T13:50:48.119Z,1022.56
2023-03-28T13:51:48.121Z,1022.54
2023-03-28T13:52:48.109Z,1022.56
2023-03-28T13:53:48.587Z,1022.57
2023-03-28T13:54:56.672Z,1022.55
2023-03-28T13:55:48.073Z,1022.56
2023-03-28T13:56:48.062Z,1022.57
2023-03-28T13:57:48.078Z,1022.56
2023-03-28T13:58:48.036Z,1022.53
2023-03-28T13:59:48.099Z,1022.49
2023-03-28T14:00:48.004Z,1022.44
2023-03-28T14:01:48.152Z,1022.49
2023-03-28T14:02:48.319Z,1022.45
2023-03-28T14:03:48.358Z,1022.42
2023-03-28T14:04:48.092Z,1022.44
2023-03-28T14:05:48.133Z,1022.45
2023-03-28T14:06:48.291Z,1022.45
2023-03-28T14:07:47.935Z,1022.39
2023-03-28T14:08:47.927Z,1022.35
2023-03-28T14:09:47.917Z,1022.36
2023-03-28T14:10:47.959Z,1022.39
2023-03-28T14:11:47.897Z,1022.34
2023-03-28T14:12:47.877Z,1022.30
2023-03-28T14:13:47.819Z,1022.28
2023-03-28T14:14:47.825Z,1022.25
2023-03-28T14:15:47.781Z,1022.24
2023-03-28T14:16:48.504Z,1022.21
2023-03-28T14:17:47.790Z,1022.25
2023-03-28T14:18:47.775Z,1022.20
2023-03-28T14:19:47.844Z,1022.21
2023-03-28T14:20:48.434Z,1022.16
2023-03-28T14:21:47.918Z,1022.15
2023-03-28T14:22:59.116Z,1022.07
2023-03-28T14:23:48.715Z,1022.01
2023-03-28T14:24:48.576Z,1021.99
2023-03-28T14:25:47.648Z,1021.93
2023-03-28T14:26:47.640Z,1021.93
2023-03-28T14:27:47.629Z,1021.90
2023-03-28T14:28:47.640Z,1021.94
2023-03-28T14:29:47.603Z,1021.94
2023-03-28T14:30:47.618Z,1021.90
2023-03-28T14:31:47.602Z,1021.91
2023-03-28T14:32:57.136Z,1021.89
2023-03-28T14:33:48.603Z,1021.85
2023-03-28T14:34:47.643Z,1021.88
2023-03-28T14:35:47.584Z,1021.89
2023-03-28T14:36:47.561Z,1021.90
2023-03-28T14:37:47.549Z,1021.91
2023-03-28T14:38:47.511Z,1021.84
2023-03-28T14:39:47.494Z,1021.80
2023-03-28T14:40:47.463Z,1021.78
2023-03-28T14:41:47.483Z,1021.77
2023-03-28T14:42:47.477Z,1021.67
2023-03-28T14:43:47.449Z,1021.75
2023-03-28T14:44:47.419Z,1021.73
2023-03-28T14:45:47.495Z,1021.64
2023-03-28T14:46:47.391Z,1021.64
2023-03-28T14:47:48.131Z,1021.64
2023-03-28T14:48:47.334Z,1021.62
2023-03-28T14:49:47.382Z,1021.62
2023-03-28T14:50:47.443Z,1021.62
2023-03-28T14:51:47.338Z,1021.61
2023-03-28T14:52:47.378Z,1021.63
2023-03-28T14:53:47.319Z,1021.50
2023-03-28T14:54:47.344Z,1021.57
2023-03-28T14:55:47.314Z,1021.50
2023-03-28T14:56:47.319Z,1021.47
2023-03-28T14:57:47.399Z,1021.49
2023-03-28T14:58:47.408Z,1021.39
2023-03-28T14:59:47.254Z,1021.36
2023-03-28T15:00:47.269Z,1021.30
2023-03-28T15:01:47.204Z,1021.30
2023-03-28T15:02:47.318Z,1021.24
2023-03-28T15:03:47.374Z,1021.24
2023-03-28T15:04:47.222Z,1021.13
2023-03-28T15:05:47.160Z,1021.23
2023-03-28T15:06:47.212Z,1021.15
2023-03-28T15:07:47.082Z,1021.07
2023-03-28T15:08:47.209Z,1021.11
2023-03-28T15:09:47.087Z,1021.02
2023-03-28T15:10:47.130Z,1021.13
2023-03-28T15:11:47.073Z,1021.05
2023-03-28T15:12:47.117Z,1021.06
2023-03-28T15:13:47.024Z,1021.02
2023-03-28T15:14:47.043Z,1020.96
2023-03-28T15:15:47.005Z,1020.92
2023-03-28T15:16:47.064Z,1020.85
2023-03-28T15:17:47.011Z,1020.77
2023-03-28T15:18:46.996Z,1020.78
2023-03-28T15:19:46.994Z,1020.73
2023-03-28T15:20:46.920Z,1020.82
2023-03-28T15:21:46.927Z,1020.77
2023-03-28T15:22:46.901Z,1020.79
2023-03-28T15:23:46.956Z,1020.80
2023-03-28T15:24:46.925Z,1020.84
2023-03-28T15:25:47.008Z,1020.75
2023-03-28T15:26:46.959Z,1020.78
2023-03-28T15:27:47.076Z,1020.74
2023-03-28T15:28:46.794Z,1020.76
2023-03-28T15:29:46.807Z,1020.75
2023-03-28T15:30:46.874Z,1020.65
2023-03-28T15:31:46.888Z,1020.64
2023-03-28T15:32:47.048Z,1020.71
2023-03-28T15:33:46.811Z,1020.64
2023-03-28T15:34:47.251Z,1020.64
2023-03-28T15:35:46.765Z,1020.62
2023-03-28T15:36:46.704Z,1020.66
2023-03-28T15:37:46.745Z,1020.67
2023-03-28T15:38:46.668Z,1020.68
2023-03-28T15:39:46.735Z,1020.60
2023-03-28T15:40:46.650Z,1020.60
2023-03-28T15:41:46.673Z,1020.60
2023-03-28T15:42:46.734Z,1020.60
2023-03-28T15:43:46.613Z,1020.62
2023-03-28T15:44:46.635Z,1020.58
2023-03-28T15:45:46.622Z,1020.62
2023-03-28T15:46:46.726Z,1020.59
2023-03-28T15:47:46.583Z,1020.57
2023-03-28T15:48:46.570Z,1020.57
2023-03-28T15:49:47.536Z,1020.52
2023-03-28T15:50:46.528Z,1020.49
2023-03-28T15:51:46.526Z,1020.54
2023-03-28T15:52:46.610Z,1020.51
2023-03-28T15:53:46.586Z,1020.49
2023-03-28T15:54:46.463Z,1020.46
2023-03-28T15:55:46.478Z,1020.44
2023-03-28T15:56:46.479Z,1020.50
2023-03-28T15:57:48.064Z,1020.43
2023-03-28T15:58:46.445Z,1020.40
2023-03-28T15:59:46.422Z,1020.35
2023-03-28T16:00:47.854Z,1020.30
2023-03-28T16:01:46.455Z,1020.29
2023-03-28T16:02:46.371Z,1020.34
2023-03-28T16:03:46.416Z,1020.28
2023-03-28T16:04:46.387Z,1020.28
2023-03-28T16:05:46.317Z,1020.28
2023-03-28T16:06:46.469Z,1020.20
2023-03-28T16:07:46.409Z,1020.23
2023-03-28T16:08:46.292Z,1020.20
2023-03-28T16:09:46.273Z,1020.19
2023-03-28T16:10:46.232Z,1020.20
2023-03-28T16:11:46.265Z,1020.21
2023-03-28T16:12:46.252Z,1020.24
2023-03-28T16:13:46.219Z,1020.24
2023-03-28T16:14:46.222Z,1020.24
2023-03-28T16:15:46.435Z,1020.21
2023-03-28T16:16:46.228Z,1020.19
2023-03-28T16:17:46.175Z,1020.23
2023-03-28T16:18:46.144Z,1020.20
2023-03-28T16:19:46.177Z,1020.13
2023-03-28T16:20:46.141Z,1020.09
2023-03-28T16:21:46.141Z,1020.11
2023-03-28T16:22:46.068Z,1020.10
2023-03-28T16:23:46.098Z,1020.10
2023-03-28T16:24:46.039Z,1020.09
2023-03-28T16:25:46.049Z,1020.07
2023-03-28T16:26:46.024Z,1020.08
2023-03-28T16:27:46.059Z,1020.02
2023-03-28T16:28:45.982Z,1020.04
2023-03-28T16:29:45.975Z,1020.03
2023-03-28T16:30:45.948Z,1020.01
2023-03-28T16:31:46.093Z,1020.01
2023-03-28T16:32:45.952Z,1019.96
2023-03-28T16:33:45.935Z,1020.00
2023-03-28T16:34:45.926Z,1019.97
2023-03-28T16:35:45.969Z,1019.94
2023-03-28T16:36:45.887Z,1019.98
2023-03-28T16:37:45.957Z,1019.94
2023-03-28T16:38:45.856Z,1019.94
2023-03-28T16:39:45.831Z,1019.95
2023-03-28T16:40:45.818Z,1019.94
2023-03-28T16:41:45.857Z,1019.92
2023-03-28T16:42:45.950Z,1019.91
2023-03-28T16:43:45.819Z,1019.89
2023-03-28T16:44:45.785Z,1019.89
2023-03-28T16:45:45.794Z,1019.87
2023-03-28T16:46:45.760Z,1019.92
2023-03-28T16:47:45.797Z,1019.96
2023-03-28T16:48:45.718Z,1019.90
2023-03-28T16:49:45.683Z,1019.92
2023-03-28T16:50:45.663Z,1019.89
2023-03-28T16:51:45.692Z,1019.87
2023-03-28T16:52:45.655Z,1019.85
2023-03-28T16:53:45.843Z,1019.84
2023-03-28T16:54:45.668Z,1019.83
2023-03-28T16:55:45.648Z,1019.79
2023-03-28T16:56:45.702Z,1019.86
2023-03-28T16:57:45.685Z,1019.86
2023-03-28T16:58:45.568Z,1019.87
2023-03-28T16:59:45.614Z,1019.89
2023-03-28T17:00:45.547Z,1019.93
2023-03-28T17:01:45.606Z,1019.86
2023-03-28T17:02:45.595Z,1019.88
2023-03-28T17:03:45.574Z,1019.90
2023-03-28T17:04:45.470Z,1019.95
2023-03-28T17:05:45.484Z,1019.91
2023-03-28T17:06:45.432Z,1019.91
2023-03-28T17:07:45.546Z,1019.93
2023-03-28T17:08:45.415Z,1019.89
2023-03-28T17:09:45.440Z,1019.90
2023-03-28T17:10:45.430Z,1019.89
2023-03-28T17:11:45.361Z,1019.87
2023-03-28T17:12:46.657Z,1019.90
2023-03-28T17:13:46.527Z,1019.90
2023-03-28T17:14:45.387Z,1019.87
2023-03-28T17:15:45.321Z,1019.83
2023-03-28T17:16:46.419Z,1019.83
2023-03-28T17:17:45.447Z,1019.81
2023-03-28T17:18:45.290Z,1019.79
2023-03-28T17:19:45.939Z,1019.77
2023-03-28T17:20:45.271Z,1019.80
2023-03-28T17:21:45.273Z,1019.76
2023-03-28T17:22:45.218Z,1019.79
2023-03-28T17:23:45.242Z,1019.78
2023-03-28T17:24:45.182Z,1019.78
2023-03-28T17:25:54.485Z,1019.72
2023-03-28T17:26:46.189Z,1019.69
2023-03-28T17:27:45.147Z,1019.70
2023-03-28T17:28:45.201Z,1019.69
2023-03-28T17:29:45.203Z,1019.77
2023-03-28T17:30:45.097Z,1019.72
2023-03-28T17:31:45.096Z,1019.76
2023-03-28T17:32:45.204Z,1019.75
2023-03-28T17:33:45.127Z,1019.73
2023-03-28T17:34:45.178Z,1019.73
2023-03-28T17:35:45.106Z,1019.73
2023-03-28T17:36:45.050Z,1019.71
2023-03-28T17:37:45.018Z,1019.72
2023-03-28T17:38:45.036Z,1019.73
2023-03-28T17:39:44.985Z,1019.73
2023-03-28T17:40:45.019Z,1019.72
2023-03-28T17:41:44.948Z,1019.72
2023-03-28T17:42:44.946Z,1019.72
2023-03-28T17:43:46.152Z,1019.69
2023-03-28T17:44:44.910Z,1019.70
2023-03-28T17:45:44.897Z,1019.68
2023-03-28T17:46:44.917Z,1019.66
2023-03-28T17:47:44.931Z,1019.65
2023-03-28T17:48:45.093Z,1019.64
2023-03-28T17:49:44.905Z,1019.64
2023-03-28T17:50:44.850Z,1019.63
2023-03-28T17:51:45.158Z,1019.61
2023-03-28T17:52:46.535Z,1019.61
2023-03-28T17:53:44.775Z,1019.61
2023-03-28T17:54:44.870Z,1019.58
2023-03-28T17:55:47.959Z,1019.61
2023-03-28T17:56:44.867Z,1019.61
2023-03-28T17:57:45.212Z,1019.61
2023-03-28T17:58:44.917Z,1019.62
2023-03-28T17:59:44.774Z,1019.62
2023-03-28T18:00:44.707Z,1019.55
2023-03-28T18:01:46.257Z,1019.55
2023-03-28T18:02:44.808Z,1019.59
2023-03-28T18:03:44.855Z,1019.56
2023-03-28T18:04:44.741Z,1019.56
2023-03-28T18:05:44.655Z,1019.57
2023-03-28T18:06:44.681Z,1019.55
2023-03-28T18:07:44.637Z,1019.54
2023-03-28T18:08:44.691Z,1019.57
2023-03-28T18:09:44.651Z,1019.56
2023-03-28T18:10:44.569Z,1019.55
2023-03-28T18:11:44.555Z,1019.53
2023-03-28T18:12:44.497Z,1019.49
2023-03-28T18:13:44.690Z,1019.51
2023-03-28T18:14:44.535Z,1019.48
2023-03-28T18:15:44.580Z,1019.47
2023-03-28T18:16:44.682Z,1019.48
2023-03-28T18:17:44.526Z,1019.48
2023-03-28T18:18:44.481Z,1019.47
2023-03-28T18:19:44.505Z,1019.44
2023-03-28T18:20:44.392Z,1019.46
2023-03-28T18:21:44.406Z,1019.42
2023-03-28T18:22:44.417Z,1019.43
2023-03-28T18:23:44.441Z,1019.38
2023-03-28T18:24:44.370Z,1019.43
2023-03-28T18:25:44.388Z,1019.42
2023-03-28T18:26:44.320Z,1019.42
2023-03-28T18:27:44.505Z,1019.41
2023-03-28T18:28:44.393Z,1019.41
2023-03-28T18:29:44.318Z,1019.41
2023-03-28T18:30:44.271Z,1019.36
2023-03-28T18:31:44.368Z,1019.40
2023-03-28T18:32:44.275Z,1019.39
2023-03-28T18:33:44.261Z,1019.37
2023-03-28T18:34:44.233Z,1019.35
2023-03-28T18:35:44.281Z,1019.35
2023-03-28T18:36:44.189Z,1019.35
2023-03-28T18:37:44.242Z,1019.34
2023-03-28T18:38:44.152Z,1019.33
2023-03-28T18:39:44.145Z,1019.34
2023-03-28T18:40:44.139Z,1019.32
2023-03-28T18:41:44.198Z,1019.31
2023-03-28T18:42:44.146Z,1019.31
2023-03-28T18:43:44.105Z,1019.32
2023-03-28T18:44:44.666Z,1019.34
2023-03-28T18:45:44.153Z,1019.33
2023-03-28T18:46:44.041Z,1019.33
2023-03-28T18:47:44.103Z,1019.32
2023-03-28T18:48:44.104Z,1019.34
2023-03-28T18:49:44.050Z,1019.38
2023-03-28T18:50:45.103Z,1019.32
2023-03-28T18:51:44.000Z,1019.35
2023-03-28T18:52:44.066Z,1019.39
2023-03-28T18:53:54.558Z,1019.40
2023-03-28T18:54:43.937Z,1019.36
2023-03-28T18:55:43.924Z,1019.36
2023-03-28T18:56:43.937Z,1019.43
2023-03-28T18:57:43.951Z,1019.40
2023-03-28T18:58:43.990Z,1019.42
2023-03-28T18:59:43.981Z,1019.45
2023-03-28T19:00:43.959Z,1019.46
2023-03-28T19:01:45.094Z,1019.41
2023-03-28T19:02:43.975Z,1019.48
2023-03-28T19:03:43.876Z,1019.57
2023-03-28T19:04:43.910Z,1019.50
2023-03-28T19:05:43.862Z,1019.53
2023-03-28T19:06:43.903Z,1019.58
2023-03-28T19:07:43.797Z,1019.54
2023-03-28T19:08:43.773Z,1019.59
2023-03-28T19:09:43.808Z,1019.59
2023-03-28T19:10:43.752Z,1019.63
2023-03-28T19:11:43.734Z,1019.63
2023-03-28T19:12:43.715Z,1019.63
2023-03-28T19:13:43.736Z,1019.65
2023-03-28T19:14:43.688Z,1019.66
2023-03-28T19:15:43.762Z,1019.65
2023-03-28T19:16:43.716Z,1019.73
2023-03-28T19:17:43.738Z,1019.68
2023-03-28T19:18:43.653Z,1019.71
2023-03-28T19:19:43.630Z,1019.71
2023-03-28T19:20:43.592Z,1019.74
2023-03-28T19:21:43.683Z,1019.77
2023-03-28T19:22:43.602Z,1019.79
2023-03-28T19:23:43.591Z,1019.79
2023-03-28T19:24:43.564Z,1019.79
2023-03-28T19:25:43.547Z,1019.81
2023-03-28T19:26:43.533Z,1019.82
2023-03-28T19:27:43.498Z,1019.79
2023-03-28T19:28:43.520Z,1019.84
2023-03-28T19:29:43.518Z,1019.80
2023-03-28T19:30:43.494Z,1019.79
2023-03-28T19:31:43.560Z,1019.78
2023-03-28T19:32:43.476Z,1019.72
2023-03-28T19:33:43.484Z,1019.75
2023-03-28T19:34:43.547Z,1019.72
2023-03-28T19:35:43.443Z,1019.68
2023-03-28T19:36:43.413Z,1019.69
2023-03-28T19:37:43.364Z,1019.66
2023-03-28T19:38:43.429Z,1019.62
2023-03-28T19:39:43.370Z,1019.57
2023-03-28T19:40:43.366Z,1019.60
2023-03-28T19:41:43.375Z,1019.58
2023-03-28T19:42:43.304Z,1019.61
2023-03-28T19:43:43.379Z,1019.59
2023-03-28T19:44:43.331Z,1019.64
2023-03-28T19:45:43.305Z,1019.66
2023-03-28T19:46:43.341Z,1019.65
2023-03-28T19:47:43.276Z,1019.61
2023-03-28T19:48:43.236Z,1019.57
2023-03-28T19:49:43.265Z,1019.55
2023-03-28T19:50:43.231Z,1019.55
2023-03-28T19:51:43.216Z,1019.49
2023-03-28T19:52:43.213Z,1019.49
2023-03-28T19:53:43.204Z,1019.51
2023-03-28T19:54:43.189Z,1019.49
2023-03-28T19:56:53.561Z,1019.48
2023-03-28T19:57:53.549Z,1019.45
2023-03-28T19:58:53.595Z,1019.43
2023-03-28T19:59:53.503Z,1019.44
2023-03-28T20:00:53.464Z,1019.38
2023-03-28T20:01:53.488Z,1019.39
2023-03-28T20:02:53.503Z,1019.39
2023-03-28T20:03:53.584Z,1019.40
2023-03-28T20:04:53.462Z,1019.42
2023-03-28T20:05:53.444Z,1019.41
2023-03-28T20:06:53.415Z,1019.37
2023-03-28T20:07:53.415Z,1019.40
2023-03-28T20:08:53.477Z,1019.46
2023-03-28T20:09:53.435Z,1019.50
2023-03-28T20:10:53.382Z,1019.51
2023-03-28T20:11:53.419Z,1019.55
2023-03-28T20:12:53.349Z,1019.59
2023-03-28T20:13:53.365Z,1019.56
2023-03-28T20:14:55.036Z,1019.60
2023-03-28T20:15:53.340Z,1019.51
2023-03-28T20:16:53.291Z,1019.51
2023-03-28T20:17:53.334Z,1019.51
2023-03-28T20:18:53.262Z,1019.52
2023-03-28T20:19:53.294Z,1019.53
2023-03-28T20:20:53.297Z,1019.50
2023-03-28T20:21:53.247Z,1019.50
2023-03-28T20:22:53.219Z,1019.54
2023-03-28T20:23:53.212Z,1019.48
2023-03-28T20:24:53.268Z,1019.41
2023-03-28T20:25:53.221Z,1019.43
2023-03-28T20:26:53.158Z,1019.44
2023-03-28T20:27:53.144Z,1019.43
2023-03-28T20:28:53.162Z,1019.36
2023-03-28T20:29:53.168Z,1019.43
2023-03-28T20:30:53.223Z,1019.48
2023-03-28T20:31:53.145Z,1019.47
2023-03-28T20:32:53.111Z,1019.46
2023-03-28T20:33:53.079Z,1019.51
2023-03-28T20:34:53.109Z,1019.47
2023-03-28T20:35:53.080Z,1019.43
2023-03-28T20:36:53.021Z,1019.41
2023-03-28T20:37:53.045Z,1019.39
2023-03-28T20:38:53.040Z,1019.41
2023-03-28T20:39:53.004Z,1019.37
2023-03-28T20:40:53.007Z,1019.38
2023-03-28T20:41:52.965Z,1019.37
2023-03-28T20:42:52.959Z,1019.36
2023-03-28T20:43:52.982Z,1019.41
2023-03-28T20:44:52.937Z,1019.47
2023-03-28T20:45:52.947Z,1019.46
2023-03-28T20:46:52.992Z,1019.40
2023-03-28T20:47:52.969Z,1019.42
2023-03-28T20:48:53.414Z,1019.39
2023-03-28T20:49:52.911Z,1019.36
2023-03-28T20:50:52.855Z,1019.41
2023-03-28T20:51:52.893Z,1019.43
2023-03-28T20:52:52.826Z,1019.46
2023-03-28T20:53:52.866Z,1019.46
2023-03-28T20:54:52.833Z,1019.46
2023-03-28T20:55:52.817Z,1019.45
2023-03-28T20:56:52.857Z,1019.49
2023-03-28T20:57:52.784Z,1019.51
2023-03-28T20:58:52.830Z,1019.49
2023-03-28T20:59:52.785Z,1019.48
2023-03-28T21:00:52.805Z,1019.47
2023-03-28T21:01:52.746Z,1019.46
2023-03-28T21:02:52.754Z,1019.44
2023-03-28T21:03:52.715Z,1019.37
2023-03-28T21:04:52.781Z,1019.34
2023-03-28T21:05:52.688Z,1019.30
2023-03-28T21:06:52.700Z,1019.28
2023-03-28T21:07:52.680Z,1019.29
2023-03-28T21:08:52.681Z,1019.28
2023-03-28T21:09:52.647Z,1019.27
2023-03-28T21:10:52.714Z,1019.29
2023-03-28T21:11:52.651Z,1019.25
2023-03-28T21:12:52.593Z,1019.17
2023-03-28T21:13:52.611Z,1019.20
2023-03-28T21:14:52.601Z,1019.16
2023-03-28T21:15:52.622Z,1019.14
2023-03-28T21:16:52.614Z,1019.11
2023-03-28T21:17:52.594Z,1019.11
2023-03-28T21:18:52.529Z,1019.10
2023-03-28T21:19:52.595Z,1019.06
2023-03-28T21:20:52.534Z,1019.04
2023-03-28T21:21:52.552Z,1018.99
2023-03-28T21:22:52.533Z,1019.02
2023-03-28T21:23:52.522Z,1018.97
2023-03-28T21:24:52.462Z,1018.94
2023-03-28T21:25:52.456Z,1018.96
2023-03-28T21:26:52.424Z,1018.91
2023-03-28T21:27:52.484Z,1018.85
2023-03-28T21:28:52.553Z,1018.84
2023-03-28T21:29:52.400Z,1018.85
2023-03-28T21:30:52.390Z,1018.82
2023-03-28T21:31:52.452Z,1018.82
2023-03-28T21:32:52.465Z,1018.82
2023-03-28T21:33:52.359Z,1018.81
2023-03-28T21:34:52.363Z,1018.79
2023-03-28T21:35:52.394Z,1018.76
2023-03-28T21:36:52.319Z,1018.81
2023-03-28T21:37:52.338Z,1018.78
2023-03-28T21:38:52.296Z,1018.76
2023-03-28T21:39:52.273Z,1018.71
2023-03-28T21:40:52.348Z,1018.66
2023-03-28T21:41:52.262Z,1018.66
2023-03-28T21:42:52.242Z,1018.65
2023-03-28T21:43:52.309Z,1018.60
2023-03-28T21:44:52.207Z,1018.63
2023-03-28T21:45:52.256Z,1018.56
2023-03-28T21:46:52.235Z,1018.58
2023-03-28T21:47:52.266Z,1018.59
2023-03-28T21:48:52.170Z,1018.58
2023-03-28T21:49:52.179Z,1018.58
2023-03-28T21:50:52.133Z,1018.62
2023-03-28T21:51:52.149Z,1018.58
2023-03-28T21:52:52.116Z,1018.51
2023-03-28T21:53:52.113Z,1018.57
2023-03-28T21:54:52.139Z,1018.56
2023-03-28T21:55:52.103Z,1018.54
2023-03-28T21:56:52.174Z,1018.52
2023-03-28T21:57:52.099Z,1018.56
2023-03-28T21:58:52.070Z,1018.54
2023-03-28T21:59:33.355Z,1018.55
2023-03-28T22:00:33.368Z,1018.56
2023-03-28T22:01:33.386Z,1018.54
2023-03-28T22:02:33.386Z,1018.50
2023-03-28T22:03:33.378Z,1018.49
2023-03-28T22:04:33.294Z,1018.52
2023-03-28T22:05:33.298Z,1018.54
2023-03-28T22:06:33.320Z,1018.49
2023-03-28T22:07:33.287Z,1018.51
2023-03-28T22:08:33.304Z,1018.51
2023-03-28T22:09:33.289Z,1018.50
2023-03-28T22:10:33.294Z,1018.45
2023-03-28T22:11:33.232Z,1018.43
2023-03-28T22:12:33.210Z,1018.43
2023-03-28T22:13:33.223Z,1018.44
2023-03-28T22:14:33.217Z,1018.44
2023-03-28T22:15:33.234Z,1018.45
2023-03-28T22:16:33.156Z,1018.45
2023-03-28T22:17:33.272Z,1018.44
2023-03-28T22:18:33.134Z,1018.46
2023-03-28T22:19:33.111Z,1018.43
2023-03-28T22:20:33.128Z,1018.40
2023-03-28T22:21:33.163Z,1018.38
2023-03-28T22:22:33.106Z,1018.41
2023-03-28T22:23:33.186Z,1018.36
2023-03-28T22:24:33.086Z,1018.41
2023-03-28T22:25:33.050Z,1018.42
2023-03-28T22:26:33.145Z,1018.37
2023-03-28T22:27:33.091Z,1018.35
2023-03-28T22:28:33.069Z,1018.38
2023-03-28T22:29:33.054Z,1018.33
2023-03-28T22:30:33.095Z,1018.26
2023-03-28T22:31:33.058Z,1018.25
2023-03-28T22:32:33.024Z,1018.22
2023-03-28T22:33:33.020Z,1018.22
2023-03-28T22:34:33.067Z,1018.22
2023-03-28T22:35:32.940Z,1018.20
2023-03-28T22:36:32.913Z,1018.20
2023-03-28T22:37:32.888Z,1018.18
2023-03-28T22:38:32.919Z,1018.15
2023-03-28T22:39:32.899Z,1018.09
2023-03-28T22:40:32.875Z,1018.07
2023-03-28T22:41:32.978Z,1018.05
2023-03-28T22:42:32.858Z,1018.03
2023-03-28T22:43:32.862Z,1018.02
2023-03-28T22:44:32.836Z,1018.02
2023-03-28T22:45:32.794Z,1018.04
2023-03-28T22:46:32.883Z,1018.04
2023-03-28T22:47:32.811Z,1018.02
2023-03-28T22:48:32.762Z,1017.99
2023-03-28T22:49:32.791Z,1018.00
2023-03-28T22:50:32.772Z,1018.00
2023-03-28T22:51:32.732Z,1017.98
2023-03-28T22:52:32.711Z,1017.95
2023-03-28T22:53:32.743Z,1017.95
2023-03-28T22:54:32.714Z,1017.96
2023-03-28T22:55:32.691Z,1017.98
2023-03-28T22:56:32.677Z,1017.92
2023-03-28T22:57:32.642Z,1017.97
2023-03-28T22:58:32.638Z,1018.04
2023-03-28T22:59:32.652Z,1018.04
2023-03-28T23:00:32.650Z,1018.01
2023-03-28T23:01:32.690Z,1017.94
2023-03-28T23:02:32.605Z,1017.94
2023-03-28T23:03:32.591Z,1017.90
2023-03-28T23:04:32.593Z,1017.90
2023-03-28T23:05:32.617Z,1017.84
2023-03-28T23:06:32.579Z,1017.85
2023-03-28T23:07:32.574Z,1017.88
2023-03-28T23:08:32.536Z,1017.84
2023-03-28T23:09:32.497Z,1017.84
2023-03-28T23:10:32.512Z,1017.79
2023-03-28T23:11:32.539Z,1017.72
2023-03-28T23:12:32.468Z,1017.69
2023-03-28T23:13:32.476Z,1017.66
2023-03-28T23:14:32.487Z,1017.64
2023-03-28T23:15:32.473Z,1017.59
2023-03-28T23:16:32.492Z,1017.52
2023-03-28T23:17:32.445Z,1017.47
2023-03-28T23:18:32.454Z,1017.42
2023-03-28T23:19:32.423Z,1017.45
2023-03-28T23:20:32.402Z,1017.43
2023-03-28T23:21:32.457Z,1017.42
2023-03-28T23:22:32.341Z,1017.35
2023-03-28T23:23:32.441Z,1017.32
2023-03-28T23:24:32.338Z,1017.29
2023-03-28T23:25:32.353Z,1017.26
2023-03-28T23:26:32.310Z,1017.26
2023-03-28T23:27:32.316Z,1017.25
2023-03-28T23:28:32.297Z,1017.27
2023-03-28T23:29:32.245Z,1017.26
2023-03-28T23:30:32.261Z,1017.22
2023-03-28T23:31:32.338Z,1017.25
2023-03-28T23:32:32.255Z,1017.22
2023-03-28T23:33:32.201Z,1017.20
2023-03-28T23:34:32.199Z,1017.16
2023-03-28T23:35:32.227Z,1017.18
2023-03-28T23:36:32.265Z,1017.16
2023-03-28T23:37:32.214Z,1017.08
2023-03-28T23:38:32.182Z,1017.10
2023-03-28T23:39:33.610Z,1017.07
2023-03-28T23:40:32.165Z,1017.07
2023-03-28T23:41:32.183Z,1017.12
2023-03-28T23:42:32.671Z,1017.03
2023-03-28T23:43:32.096Z,1017.06
2023-03-28T23:44:32.130Z,1017.02
2023-03-28T23:45:32.097Z,1017.06
2023-03-28T23:46:32.101Z,1017.06
2023-03-28T23:47:32.201Z,1017.09
2023-03-28T23:48:32.135Z,1017.08
2023-03-28T23:49:32.061Z,1017.03
2023-03-28T23:50:32.047Z,1017.07
2023-03-28T23:51:32.080Z,1017.06
2023-03-28T23:52:33.301Z,1017.03
2023-03-28T23:53:32.013Z,1016.99
2023-03-28T23:54:32.020Z,1017.03
2023-03-28T23:55:31.957Z,1016.92
2023-03-28T23:56:31.948Z,1016.91
2023-03-28T23:57:31.945Z,1016.91
2023-03-28T23:58:31.925Z,1016.92
2023-03-28T23:59:31.944Z,1016.84
